Time;durP1;ratioP1;P1;durP2;ratioP2;P2;SDS_P1;SDS_P2;PMS_P1;PMS_P2;Temp;Humidity;BMP_temperature;BMP_pressure;BME280_temperature;BME280_humidity;BME280_pressure;Samples;Min_cycle;Max_cycle;Signal;HPM_P1;HPM_P2
2021/07/20 00:00:41;;;;;;;13.38;5.72;;;;;;;;;;6309645;22;20085;-85
2021/07/20 00:03:10;;;;;;;10.98;6.15;;;;;;;;;;6308056;22;20023;-85
2021/07/20 00:05:39;;;;;;;12.20;6.13;;;;;;;;;;6309154;22;20030;-85
2021/07/20 00:08:05;;;;;;;18.95;6.68;;;;;;;;;;6310542;22;20049;-85
2021/07/20 00:10:35;;;;;;;9.18;5.47;;;;;;;;;;6309822;22;20300;-85
2021/07/20 00:13:04;;;;;;;11.65;6.10;;;;;;;;;;6311288;22;20023;-85
2021/07/20 00:15:30;;;;;;;12.50;6.65;;;;;;;;;;6311793;22;20098;-85
2021/07/20 00:17:58;;;;;;;14.23;6.85;;;;;;;;;;6311671;22;20107;-85
2021/07/20 00:20:26;;;;;;;13.60;6.43;;;;;;;;;;6312164;22;20027;-85
2021/07/20 00:22:54;;;;;;;12.02;6.32;;;;;;;;;;6312525;22;20085;-85
2021/07/20 00:25:21;;;;;;;13.75;6.75;;;;;;;;;;6313651;22;20019;-85
2021/07/20 00:27:47;;;;;;;13.38;6.45;;;;;;;;;;6312791;22;20023;-84
2021/07/20 00:30:15;;;;;;;13.70;7.28;;;;;;;;;;6316577;22;20042;-85
2021/07/20 00:32:42;;;;;;;11.98;7.30;;;;;;;;;;6344263;22;20023;-85
2021/07/20 00:35:10;;;;;;;16.35;7.22;;;;;;;;;;6317878;22;20049;-85
2021/07/20 00:37:37;;;;;;;10.77;7.05;;;;;;;;;;6316706;22;20034;-85
2021/07/20 00:40:11;;;;;;;12.98;6.60;;;;;;;;;;6345978;22;20030;-84
2021/07/20 00:42:39;;;;;;;16.63;7.03;;;;;;;;;;6317627;22;20099;-85
2021/07/20 00:45:07;;;;;;;15.00;7.18;;;;;;;;;;6317588;22;20076;-85
2021/07/20 00:47:34;;;;;;;16.70;7.43;;;;;;;;;;6316808;22;20045;-86
2021/07/20 00:50:01;;;;;;;16.77;8.35;;;;;;;;;;6343727;22;20066;-84
2021/07/20 00:52:29;;;;;;;14.77;7.45;;;;;;;;;;6317716;22;20230;-85
2021/07/20 00:54:56;;;;;;;15.88;7.32;;;;;;;;;;6316246;22;20041;-85
2021/07/20 00:57:23;;;;;;;12.23;7.60;;;;;;;;;;6343719;22;20023;-85
2021/07/20 00:59:50;;;;;;;13.98;7.38;;;;;;;;;;6318500;22;20023;-85
2021/07/20 01:02:17;;;;;;;14.27;7.57;;;;;;;;;;6318219;22;20029;-85
2021/07/20 01:04:44;;;;;;;16.15;7.35;;;;;;;;;;6317928;22;20022;-85
2021/07/20 01:07:11;;;;;;;20.50;7.25;;;;;;;;;;6317919;22;20050;-85
2021/07/20 01:09:43;;;;;;;15.52;7.22;;;;;;;;;;6344480;22;20396;-84
2021/07/20 01:12:10;;;;;;;14.68;7.05;;;;;;;;;;6346135;22;20022;-85
2021/07/20 01:14:37;;;;;;;15.38;7.30;;;;;;;;;;6320413;22;20350;-85
2021/07/20 01:17:04;;;;;;;16.30;7.78;;;;;;;;;;6318817;22;20023;-84
2021/07/20 01:19:36;;;;;;;13.73;7.43;;;;;;;;;;6319596;22;20030;-85
2021/07/20 01:22:04;;;;;;;17.67;7.15;;;;;;;;;;6315899;22;20053;-85
2021/07/20 01:24:31;;;;;;;13.60;7.28;;;;;;;;;;6318391;22;20033;-85
2021/07/20 01:27:01;;;;;;;11.57;6.53;;;;;;;;;;6316533;22;20121;-84
2021/07/20 01:29:29;;;;;;;14.13;7.07;;;;;;;;;;6311772;22;20054;-84
2021/07/20 01:31:55;;;;;;;16.63;7.50;;;;;;;;;;6312454;22;20023;-85
2021/07/20 01:34:22;;;;;;;15.05;7.60;;;;;;;;;;6313250;22;20102;-84
2021/07/20 01:36:50;;;;;;;13.60;6.75;;;;;;;;;;6312389;22;20023;-84
2021/07/20 01:39:17;;;;;;;13.32;7.05;;;;;;;;;;6313251;22;20030;-84
2021/07/20 01:41:45;;;;;;;16.38;8.00;;;;;;;;;;6312983;22;20110;-84
2021/07/20 01:44:12;;;;;;;16.35;8.15;;;;;;;;;;6313626;22;20110;-84
2021/07/20 01:46:45;;;;;;;14.77;8.02;;;;;;;;;;6312558;22;20038;-84
2021/07/20 01:49:16;;;;;;;13.35;7.63;;;;;;;;;;6313868;22;20088;-84
2021/07/20 01:51:43;;;;;;;14.40;7.47;;;;;;;;;;6314350;22;20098;-85
2021/07/20 01:54:10;;;;;;;13.93;7.32;;;;;;;;;;6313312;22;20031;-85
2021/07/20 01:56:38;;;;;;;12.40;7.13;;;;;;;;;;6324673;22;20034;-85
2021/07/20 01:59:07;;;;;;;14.90;7.30;;;;;;;;;;6331285;22;20022;-86
2021/07/20 02:01:40;;;;;;;15.10;7.13;;;;;;;;;;6318466;22;20030;-85
2021/07/20 02:09:41;;;;;;;16.83;8.02;;;;;;;;;;6313993;22;20019;-84
2021/07/20 02:12:14;;;;;;;18.67;7.68;;;;;;;;;;6313074;22;20027;-84
2021/07/20 02:14:42;;;;;;;13.27;7.28;;;;;;;;;;6312797;22;20023;-85
2021/07/20 02:17:10;;;;;;;21.92;8.07;;;;;;;;;;6310085;22;20362;-85
2021/07/20 02:19:42;;;;;;;14.85;7.35;;;;;;;;;;6309531;22;20023;-85
2021/07/20 02:22:09;;;;;;;13.90;8.05;;;;;;;;;;6311362;22;20024;-84
2021/07/20 02:24:37;;;;;;;13.95;7.32;;;;;;;;;;6312218;22;20448;-84
2021/07/20 02:27:05;;;;;;;15.88;7.30;;;;;;;;;;6313047;22;20019;-84
2021/07/20 02:29:32;;;;;;;14.73;6.68;;;;;;;;;;6312746;22;20258;-84
2021/07/20 02:32:01;;;;;;;13.82;7.75;;;;;;;;;;6312974;22;20043;-84
2021/07/20 02:34:28;;;;;;;13.48;7.63;;;;;;;;;;6310615;22;20023;-84
2021/07/20 02:36:56;;;;;;;14.02;7.28;;;;;;;;;;6311027;22;20446;-84
2021/07/20 02:39:26;;;;;;;17.55;7.90;;;;;;;;;;6314866;22;20029;-84
2021/07/20 02:41:54;;;;;;;17.00;7.82;;;;;;;;;;6317241;22;20081;-85
2021/07/20 02:44:23;;;;;;;17.45;8.50;;;;;;;;;;6318519;22;20377;-84
2021/07/20 02:46:49;;;;;;;15.93;8.10;;;;;;;;;;6318864;22;20091;-85
2021/07/20 02:49:17;;;;;;;13.40;7.30;;;;;;;;;;6313372;22;20034;-85
2021/07/20 02:51:44;;;;;;;16.10;8.75;;;;;;;;;;6312929;22;20323;-84
2021/07/20 02:54:11;;;;;;;18.35;8.05;;;;;;;;;;6311687;22;20023;-85
2021/07/20 02:56:39;;;;;;;14.93;7.93;;;;;;;;;;6312512;22;20329;-85
2021/07/20 02:59:06;;;;;;;13.00;7.85;;;;;;;;;;6312563;22;20023;-85
2021/07/20 03:01:35;;;;;;;17.65;8.07;;;;;;;;;;6310618;22;20116;-85
2021/07/20 03:04:02;;;;;;;15.23;7.78;;;;;;;;;;6310486;22;20027;-85
2021/07/20 03:06:33;;;;;;;18.85;8.60;;;;;;;;;;6312636;22;20031;-85
2021/07/20 03:09:00;;;;;;;20.30;9.00;;;;;;;;;;6314896;22;20077;-84
2021/07/20 03:11:28;;;;;;;20.90;8.40;;;;;;;;;;6313953;22;20034;-84
2021/07/20 03:13:56;;;;;;;13.13;7.80;;;;;;;;;;6312824;22;20019;-84
2021/07/20 03:16:24;;;;;;;14.27;8.00;;;;;;;;;;6313896;22;20034;-85
2021/07/20 03:19:11;;;;;;;15.77;8.18;;;;;;;;;;6258660;22;20026;-85
2021/07/20 03:22:02;;;;;;;17.02;8.43;;;;;;;;;;6219270;23;20016;-84
2021/07/20 03:24:34;;;;;;;18.60;8.52;;;;;;;;;;6221779;23;20570;-85
2021/07/20 03:27:01;;;;;;;15.77;8.02;;;;;;;;;;6226271;23;20063;-85
2021/07/20 03:29:31;;;;;;;19.05;8.98;;;;;;;;;;6235785;23;20094;-84
2021/07/20 03:31:58;;;;;;;17.25;8.98;;;;;;;;;;6234345;23;20036;-85
2021/07/20 03:34:40;;;;;;;19.25;9.07;;;;;;;;;;6211253;23;20471;-84
2021/07/20 03:37:07;;;;;;;16.20;8.63;;;;;;;;;;6233065;23;20047;-85
2021/07/20 03:39:35;;;;;;;15.90;8.05;;;;;;;;;;6222347;23;20067;-84
2021/07/20 03:42:02;;;;;;;16.65;8.35;;;;;;;;;;6194910;23;20597;-84
2021/07/20 03:44:32;;;;;;;19.92;8.73;;;;;;;;;;6219822;23;20088;-84
2021/07/20 03:47:02;;;;;;;18.88;8.45;;;;;;;;;;6201339;23;20025;-84
2021/07/20 03:49:29;;;;;;;20.80;9.68;;;;;;;;;;6234009;23;20056;-84
2021/07/20 03:52:12;;;;;;;21.55;8.45;;;;;;;;;;6267781;22;20053;-84
2021/07/20 03:54:39;;;;;;;16.75;8.35;;;;;;;;;;6326213;22;20049;-85
2021/07/20 03:57:21;;;;;;;20.15;8.75;;;;;;;;;;6320800;22;20050;-85
2021/07/20 03:59:49;;;;;;;20.48;8.52;;;;;;;;;;6327112;22;20025;-85
2021/07/20 04:02:22;;;;;;;16.90;7.68;;;;;;;;;;6317710;22;20077;-85
2021/07/20 04:04:53;;;;;;;13.30;7.10;;;;;;;;;;6314797;22;20035;-83
2021/07/20 04:07:20;;;;;;;18.50;8.45;;;;;;;;;;6313787;22;20027;-84
2021/07/20 04:09:48;;;;;;;15.95;8.60;;;;;;;;;;6312904;22;20037;-84
2021/07/20 04:12:15;;;;;;;14.80;7.82;;;;;;;;;;6312155;22;20034;-84
2021/07/20 04:14:43;;;;;;;18.67;8.15;;;;;;;;;;6311670;22;20083;-84
2021/07/20 04:17:11;;;;;;;18.33;8.00;;;;;;;;;;6311904;22;20061;-84
2021/07/20 04:19:45;;;;;;;14.77;7.75;;;;;;;;;;6309855;22;20023;-85
2021/07/20 04:22:12;;;;;;;16.33;8.23;;;;;;;;;;6309835;22;20037;-84
2021/07/20 04:24:39;;;;;;;17.23;7.75;;;;;;;;;;6311811;22;20027;-85
2021/07/20 04:27:06;;;;;;;18.08;7.40;;;;;;;;;;6311825;22;20037;-85
2021/07/20 04:29:34;;;;;;;13.77;6.47;;;;;;;;;;6312306;22;20023;-84
2021/07/20 04:32:05;;;;;;;18.00;7.60;;;;;;;;;;6311884;22;20026;-85
2021/07/20 04:34:33;;;;;;;17.25;7.50;;;;;;;;;;6316665;22;20042;-85
2021/07/20 04:37:01;;;;;;;13.63;6.50;;;;;;;;;;6316367;22;20054;-85
2021/07/20 04:39:28;;;;;;;17.13;7.95;;;;;;;;;;6316715;22;20034;-85
2021/07/20 04:41:55;;;;;;;13.98;7.32;;;;;;;;;;6316168;22;20043;-85
2021/07/20 04:44:22;;;;;;;16.15;7.13;;;;;;;;;;6315121;22;20042;-84
2021/07/20 04:46:49;;;;;;;12.73;7.07;;;;;;;;;;6311732;22;20051;-84
2021/07/20 04:49:16;;;;;;;12.32;6.32;;;;;;;;;;6308446;22;20019;-85
2021/07/20 04:51:43;;;;;;;13.77;6.75;;;;;;;;;;6309857;22;20461;-85
2021/07/20 04:54:10;;;;;;;12.98;6.53;;;;;;;;;;6319860;22;20034;-85
2021/07/20 04:56:37;;;;;;;13.13;6.93;;;;;;;;;;6320127;22;20034;-86
2021/07/20 04:59:04;;;;;;;12.38;6.45;;;;;;;;;;6318200;22;20195;-85
2021/07/20 05:01:36;;;;;;;13.10;6.80;;;;;;;;;;6316714;22;20046;-85
2021/07/20 05:04:03;;;;;;;10.85;6.72;;;;;;;;;;6312035;22;20023;-86
2021/07/20 05:06:31;;;;;;;14.73;6.25;;;;;;;;;;6309917;22;20397;-85
2021/07/20 05:08:58;;;;;;;13.27;7.18;;;;;;;;;;6308695;22;20073;-85
2021/07/20 05:11:24;;;;;;;13.75;6.70;;;;;;;;;;6312914;22;20070;-83
2021/07/20 05:13:55;;;;;;;9.32;5.93;;;;;;;;;;6323330;22;20015;-86
2021/07/20 05:16:22;;;;;;;17.45;5.97;;;;;;;;;;6314952;22;20192;-84
2021/07/20 05:18:49;;;;;;;20.60;6.68;;;;;;;;;;6306038;22;20340;-84
2021/07/20 05:21:16;;;;;;;13.23;6.18;;;;;;;;;;6303797;22;20034;-84
2021/07/20 05:23:44;;;;;;;12.18;6.65;;;;;;;;;;6302819;22;20341;-84
2021/07/20 05:26:11;;;;;;;10.27;6.30;;;;;;;;;;6304244;22;20145;-85
2021/07/20 05:28:39;;;;;;;13.18;7.22;;;;;;;;;;6317471;22;20158;-86
2021/07/20 05:31:09;;;;;;;10.40;6.47;;;;;;;;;;6306624;22;20015;-86
2021/07/20 05:33:39;;;;;;;11.98;5.97;;;;;;;;;;6311578;22;20029;-84
2021/07/20 05:36:09;;;;;;;13.88;6.63;;;;;;;;;;6311836;22;20118;-85
2021/07/20 05:38:38;;;;;;;9.68;5.80;;;;;;;;;;6306438;22;20022;-86
2021/07/20 05:41:05;;;;;;;13.38;6.53;;;;;;;;;;6307185;22;20026;-86
2021/07/20 05:43:35;;;;;;;11.13;6.38;;;;;;;;;;6305805;22;20072;-85
2021/07/20 05:46:09;;;;;;;14.05;6.35;;;;;;;;;;6334727;22;20080;-85
2021/07/20 05:48:35;;;;;;;12.35;6.55;;;;;;;;;;6333677;22;20026;-85
2021/07/20 05:51:03;;;;;;;10.63;6.05;;;;;;;;;;6307091;22;20261;-86
2021/07/20 05:53:31;;;;;;;11.45;6.28;;;;;;;;;;6304286;22;20022;-86
2021/07/20 05:56:00;;;;;;;15.65;6.53;;;;;;;;;;6304632;22;20033;-85
2021/07/20 05:58:27;;;;;;;16.08;6.47;;;;;;;;;;6305507;22;20292;-85
2021/07/20 06:00:57;;;;;;;11.63;6.05;;;;;;;;;;6306701;22;20026;-84
2021/07/20 06:03:26;;;;;;;12.85;5.97;;;;;;;;;;6312327;22;20229;-85
2021/07/20 06:05:54;;;;;;;11.77;5.40;;;;;;;;;;6337180;22;20022;-85
2021/07/20 06:08:26;;;;;;;14.57;7.18;;;;;;;;;;6303876;22;20033;-85
2021/07/20 06:10:55;;;;;;;12.45;5.55;;;;;;;;;;6304532;22;20110;-85
2021/07/20 06:13:24;;;;;;;11.32;5.63;;;;;;;;;;6333243;22;20151;-84
2021/07/20 06:15:53;;;;;;;9.85;6.18;;;;;;;;;;6278332;22;20026;-84
2021/07/20 06:18:24;;;;;;;11.70;5.70;;;;;;;;;;6304568;22;20142;-84
2021/07/20 06:20:59;;;;;;;10.98;6.22;;;;;;;;;;6302734;22;20311;-85
2021/07/20 06:23:27;;;;;;;12.05;6.10;;;;;;;;;;6301048;22;20033;-85
2021/07/20 06:25:54;;;;;;;11.10;5.90;;;;;;;;;;6307018;22;20076;-85
2021/07/20 06:28:22;;;;;;;12.90;5.38;;;;;;;;;;6329125;22;20031;-85
2021/07/20 06:30:49;;;;;;;16.85;6.13;;;;;;;;;;6302226;22;20035;-84
2021/07/20 06:33:16;;;;;;;13.65;5.50;;;;;;;;;;6332930;22;20033;-84
2021/07/20 06:35:46;;;;;;;19.83;5.80;;;;;;;;;;6337232;22;20412;-86
2021/07/20 06:38:20;;;;;;;11.48;5.65;;;;;;;;;;6335906;22;20078;-85
2021/07/20 06:40:51;;;;;;;7.90;5.35;;;;;;;;;;6337397;22;20037;-84
2021/07/20 06:43:22;;;;;;;9.35;4.90;;;;;;;;;;6308272;22;20027;-84
2021/07/20 06:45:51;;;;;;;10.88;4.93;;;;;;;;;;6309353;22;20044;-85
2021/07/20 06:48:22;;;;;;;10.25;5.60;;;;;;;;;;6311272;22;20492;-84
2021/07/20 06:50:53;;;;;;;15.73;5.43;;;;;;;;;;6309685;22;20110;-86
2021/07/20 06:53:20;;;;;;;11.20;4.95;;;;;;;;;;6310607;22;20231;-84
2021/07/20 06:55:50;;;;;;;10.48;4.88;;;;;;;;;;6338566;22;20026;-84
2021/07/20 06:58:22;;;;;;;12.32;5.78;;;;;;;;;;6337512;22;20019;-86
2021/07/20 07:00:54;;;;;;;12.10;5.07;;;;;;;;;;6313411;22;20023;-86
2021/07/20 07:03:24;;;;;;;9.35;4.60;;;;;;;;;;6312634;22;20033;-85
2021/07/20 07:06:04;;;;;;;12.48;4.70;;;;;;;;;;6345093;22;20035;-84
2021/07/20 07:08:32;;;;;;;9.82;4.43;;;;;;;;;;6306256;22;20094;-85
2021/07/20 07:11:00;;;;;;;9.20;4.30;;;;;;;;;;6335527;22;20023;-86
2021/07/20 07:13:29;;;;;;;8.98;4.45;;;;;;;;;;6307247;22;20301;-84
2021/07/20 07:15:56;;;;;;;13.23;5.13;;;;;;;;;;6336683;22;20440;-85
2021/07/20 07:18:24;;;;;;;10.20;4.55;;;;;;;;;;6307724;22;20324;-83
2021/07/20 07:20:57;;;;;;;8.82;4.13;;;;;;;;;;6306304;22;20029;-84
2021/07/20 07:23:27;;;;;;;7.85;4.18;;;;;;;;;;6335784;22;20026;-85
2021/07/20 07:25:58;;;;;;;10.57;3.85;;;;;;;;;;6334490;22;20038;-85
2021/07/20 07:28:26;;;;;;;9.63;4.32;;;;;;;;;;6302334;22;20320;-85
2021/07/20 07:30:53;;;;;;;10.82;4.45;;;;;;;;;;6303858;22;20015;-85
2021/07/20 07:33:20;;;;;;;7.70;3.92;;;;;;;;;;6304159;22;20023;-85
2021/07/20 07:35:47;;;;;;;7.95;4.28;;;;;;;;;;6301491;22;20047;-85
2021/07/20 07:38:16;;;;;;;10.13;3.95;;;;;;;;;;6301354;22;20023;-84
2021/07/20 07:40:54;;;;;;;9.45;3.80;;;;;;;;;;6302052;22;20023;-85
2021/07/20 07:43:21;;;;;;;7.82;4.25;;;;;;;;;;6301996;22;20027;-84
2021/07/20 07:45:53;;;;;;;11.95;4.80;;;;;;;;;;6302620;22;20027;-84
2021/07/20 07:48:20;;;;;;;5.78;3.50;;;;;;;;;;6304092;22;20023;-84
2021/07/20 07:50:48;;;;;;;9.95;4.63;;;;;;;;;;6304196;22;20034;-84
2021/07/20 07:53:15;;;;;;;12.27;4.35;;;;;;;;;;6301830;22;20093;-85
2021/07/20 07:55:43;;;;;;;8.65;4.30;;;;;;;;;;6305144;22;20027;-84
2021/07/20 07:58:12;;;;;;;7.85;4.20;;;;;;;;;;6311425;22;20075;-84
2021/07/20 08:00:46;;;;;;;8.75;4.40;;;;;;;;;;6305711;22;20043;-84
2021/07/20 08:03:16;;;;;;;9.00;4.75;;;;;;;;;;6303957;22;20023;-85
2021/07/20 08:05:46;;;;;;;12.88;4.45;;;;;;;;;;6305602;22;20023;-85
2021/07/20 08:08:18;;;;;;;7.78;4.78;;;;;;;;;;6307397;22;20115;-84
2021/07/20 08:10:50;;;;;;;9.30;4.45;;;;;;;;;;6307469;22;20020;-84
2021/07/20 08:13:20;;;;;;;11.73;5.18;;;;;;;;;;6309112;22;20023;-85
2021/07/20 08:15:50;;;;;;;6.20;4.18;;;;;;;;;;6304002;22;20096;-85
2021/07/20 08:18:24;;;;;;;9.98;4.25;;;;;;;;;;6304250;22;20507;-84
2021/07/20 08:21:00;;;;;;;5.38;3.72;;;;;;;;;;6308114;22;20023;-84
2021/07/20 08:23:26;;;;;;;9.38;3.92;;;;;;;;;;6305693;22;20108;-84
2021/07/20 08:25:56;;;;;;;6.95;4.57;;;;;;;;;;6311202;22;20034;-86
2021/07/20 08:28:39;;;;;;;8.98;4.53;;;;;;;;;;6321120;22;20015;-85
2021/07/20 08:31:07;;;;;;;9.90;4.50;;;;;;;;;;6316800;22;20084;-85
2021/07/20 08:33:48;;;;;;;14.45;4.75;;;;;;;;;;6305324;22;20024;-85
2021/07/20 08:36:15;;;;;;;9.93;4.57;;;;;;;;;;6304633;22;20026;-85
2021/07/20 08:38:45;;;;;;;6.65;4.07;;;;;;;;;;6301230;22;20023;-85
2021/07/20 08:44:44;;;;;;;12.93;4.95;;;;;;;;;;6318130;22;20023;-85
2021/07/20 08:47:31;;;;;;;10.90;4.65;;;;;;;;;;6315619;22;20080;-85
2021/07/20 08:49:57;;;;;;;5.85;3.95;;;;;;;;;;6302070;22;20026;-85
2021/07/20 08:52:27;;;;;;;6.25;3.92;;;;;;;;;;6304899;22;20023;-86
2021/07/20 08:55:14;;;;;;;8.25;4.88;;;;;;;;;;6303735;22;20023;-84
2021/07/20 08:57:55;;;;;;;7.30;4.50;;;;;;;;;;6307703;22;20019;-85
2021/07/20 09:00:26;;;;;;;10.43;4.93;;;;;;;;;;6318311;22;20164;-85
2021/07/20 09:03:02;;;;;;;6.82;4.35;;;;;;;;;;6319403;22;20070;-85
2021/07/20 09:05:34;;;;;;;9.25;5.43;;;;;;;;;;6319497;22;20259;-84
2021/07/20 09:08:07;;;;;;;9.05;5.25;;;;;;;;;;6321021;22;20011;-84
2021/07/20 09:10:38;;;;;;;8.70;4.68;;;;;;;;;;6308677;22;20023;-85
2021/07/20 09:13:09;;;;;;;9.65;4.25;;;;;;;;;;6306365;22;20085;-83
2021/07/20 09:15:37;;;;;;;10.45;4.60;;;;;;;;;;6307049;22;20265;-86
2021/07/20 09:18:30;;;;;;;9.70;5.68;;;;;;;;;;6305356;22;20184;-85
2021/07/20 09:21:00;;;;;;;9.88;5.20;;;;;;;;;;6270912;22;20023;-85
2021/07/20 09:23:30;;;;;;;9.43;4.85;;;;;;;;;;6305095;22;20023;-86
2021/07/20 09:26:04;;;;;;;6.93;4.55;;;;;;;;;;6306279;22;20102;-85
2021/07/20 09:28:42;;;;;;;10.05;5.28;;;;;;;;;;6304343;22;20027;-85
2021/07/20 09:31:19;;;;;;;10.55;5.78;;;;;;;;;;6305306;22;20292;-85
2021/07/20 09:33:58;;;;;;;9.18;5.30;;;;;;;;;;6303974;22;20436;-84
2021/07/20 09:36:44;;;;;;;7.30;5.15;;;;;;;;;;6305751;22;20369;-83
2021/07/20 09:39:32;;;;;;;8.80;4.97;;;;;;;;;;6306058;22;20023;-85
2021/07/20 09:42:18;;;;;;;10.88;5.20;;;;;;;;;;6305496;22;20023;-85
2021/07/20 09:45:14;;;;;;;7.97;5.20;;;;;;;;;;6303534;22;20023;-84
2021/07/20 09:47:41;;;;;;;10.93;5.47;;;;;;;;;;6280679;22;20105;-85
2021/07/20 09:50:15;;;;;;;10.95;4.90;;;;;;;;;;6301643;22;20186;-84
2021/07/20 09:52:52;;;;;;;11.98;5.22;;;;;;;;;;6304237;22;20076;-85
2021/07/20 09:55:18;;;;;;;;;;;;;;;;;;6302770;22;20023;-85
2021/07/20 09:58:21;;;;;;;13.15;5.28;;;;;;;;;;6302159;22;19915;-85
2021/07/20 10:01:01;;;;;;;12.38;5.22;;;;;;;;;;6314790;22;20075;-85
2021/07/20 10:03:28;;;;;;;8.82;4.70;;;;;;;;;;6302663;22;20062;-85
2021/07/20 10:06:16;;;;;;;10.75;4.70;;;;;;;;;;6302886;22;20245;-85
2021/07/20 10:08:53;;;;;;;10.20;5.05;;;;;;;;;;6304796;22;20034;-85
2021/07/20 10:11:22;;;;;;;7.75;4.60;;;;;;;;;;6303083;22;20163;-85
2021/07/20 10:13:57;;;;;;;8.40;5.07;;;;;;;;;;6302960;22;20024;-84
2021/07/20 10:16:34;;;;;;;6.32;4.55;;;;;;;;;;6302805;22;20027;-87
2021/07/20 10:19:16;;;;;;;8.60;4.45;;;;;;;;;;6305511;22;20030;-86
2021/07/20 10:21:59;;;;;;;10.25;4.63;;;;;;;;;;6315695;22;20007;-85
2021/07/20 10:24:29;;;;;;;11.95;4.70;;;;;;;;;;6308423;22;20068;-85
2021/07/20 10:27:11;;;;;;;6.72;4.30;;;;;;;;;;6304310;22;20329;-87
2021/07/20 10:29:44;;;;;;;9.60;5.32;;;;;;;;;;6324034;22;20050;-84
2021/07/20 10:32:16;;;;;;;10.15;4.88;;;;;;;;;;6307768;22;20026;-85
2021/07/20 10:34:45;;;;;;;11.30;4.72;;;;;;;;;;6337051;22;20019;-85
2021/07/20 10:37:15;;;;;;;12.13;5.60;;;;;;;;;;6323283;22;20129;-83
2021/07/20 10:39:48;;;;;;;9.25;4.75;;;;;;;;;;6324515;22;20030;-84
2021/07/20 10:42:19;;;;;;;8.88;5.20;;;;;;;;;;6324868;22;20023;-84
2021/07/20 10:44:59;;;;;;;8.68;4.80;;;;;;;;;;6345718;22;20085;-84
2021/07/20 10:47:49;;;;;;;10.07;5.30;;;;;;;;;;6334314;22;20030;-84
2021/07/20 10:50:39;;;;;;;9.75;5.00;;;;;;;;;;6312449;22;20350;-85
2021/07/20 10:53:26;;;;;;;11.10;5.50;;;;;;;;;;6303123;22;20210;-85
2021/07/20 10:56:17;;;;;;;10.23;4.90;;;;;;;;;;6150673;23;20029;-84
2021/07/20 10:59:04;;;;;;;11.55;4.75;;;;;;;;;;6308494;22;20205;-86
2021/07/20 11:01:38;;;;;;;10.15;4.95;;;;;;;;;;6317179;22;20022;-85
2021/07/20 11:04:30;;;;;;;10.55;5.72;;;;;;;;;;6324560;22;20087;-85
2021/07/20 11:07:16;;;;;;;8.57;4.65;;;;;;;;;;6322563;22;20026;-86
2021/07/20 11:09:47;;;;;;;7.53;5.15;;;;;;;;;;6317317;22;20271;-84
2021/07/20 11:12:14;;;;;;;9.38;5.15;;;;;;;;;;6334763;22;20397;-84
2021/07/20 11:14:58;;;;;;;8.35;4.70;;;;;;;;;;6333529;22;20019;-84
2021/07/20 11:17:26;;;;;;;8.30;4.75;;;;;;;;;;6305431;22;20172;-84
2021/07/20 11:19:54;;;;;;;10.30;5.38;;;;;;;;;;6307103;22;20347;-86
2021/07/20 11:22:26;;;;;;;9.85;4.80;;;;;;;;;;6308802;22;20019;-84
2021/07/20 11:24:53;;;;;;;7.53;4.97;;;;;;;;;;6306434;22;20079;-85
2021/07/20 11:27:25;;;;;;;9.05;4.55;;;;;;;;;;6309958;22;20029;-85
2021/07/20 11:29:54;;;;;;;8.80;5.40;;;;;;;;;;6305472;22;20031;-84
2021/07/20 11:32:26;;;;;;;12.43;5.97;;;;;;;;;;6300428;22;20333;-85
2021/07/20 11:34:59;;;;;;;7.45;5.03;;;;;;;;;;6300839;22;20019;-85
2021/07/20 11:37:28;;;;;;;6.03;5.00;;;;;;;;;;6315060;22;20023;-84
2021/07/20 11:40:07;;;;;;;7.07;4.82;;;;;;;;;;6315727;22;20176;-84
2021/07/20 11:42:37;;;;;;;8.18;4.57;;;;;;;;;;6319030;22;20443;-84
2021/07/20 11:45:09;;;;;;;8.55;5.13;;;;;;;;;;6317651;22;20047;-85
2021/07/20 11:47:37;;;;;;;7.70;4.88;;;;;;;;;;6315787;22;20252;-84
2021/07/20 11:50:15;;;;;;;5.95;4.60;;;;;;;;;;6308488;22;20037;-85
2021/07/20 11:52:57;;;;;;;10.70;4.88;;;;;;;;;;6302673;22;20018;-84
2021/07/20 11:55:46;;;;;;;7.97;5.03;;;;;;;;;;6302504;22;20194;-86
2021/07/20 11:58:21;;;;;;;11.18;5.03;;;;;;;;;;6304181;22;20030;-85
2021/07/20 12:04:16;;;;;;;7.55;4.93;;;;;;;;;;6308979;22;20086;-85
2021/07/20 12:07:05;;;;;;;9.02;5.25;;;;;;;;;;6301846;22;20294;-85
2021/07/20 12:09:50;;;;;;;8.45;4.80;;;;;;;;;;6304715;22;20023;-85
2021/07/20 12:12:53;;;;;;;8.10;5.07;;;;;;;;;;6302783;22;20019;-85
2021/07/20 12:15:33;;;;;;;7.15;4.68;;;;;;;;;;6300530;22;20077;-84
2021/07/20 12:18:01;;;;;;;10.50;5.20;;;;;;;;;;6304218;22;20023;-85
2021/07/20 12:20:28;;;;;;;7.57;4.85;;;;;;;;;;6309111;22;20053;-84
2021/07/20 12:22:56;;;;;;;12.68;5.00;;;;;;;;;;6309320;22;20037;-84
2021/07/20 12:25:23;;;;;;;8.52;5.15;;;;;;;;;;6307930;22;20030;-85
2021/07/20 12:27:51;;;;;;;10.18;4.88;;;;;;;;;;6305558;22;20282;-84
2021/07/20 12:30:47;;;;;;;6.25;4.38;;;;;;;;;;6310877;22;20084;-86
2021/07/20 12:33:14;;;;;;;8.70;4.78;;;;;;;;;;6304954;22;20027;-86
2021/07/20 12:35:45;;;;;;;8.05;4.72;;;;;;;;;;6306073;22;20023;-85
2021/07/20 12:38:12;;;;;;;8.10;4.70;;;;;;;;;;6302464;22;20044;-85
2021/07/20 12:40:39;;;;;;;10.27;5.25;;;;;;;;;;6303724;22;20084;-84
2021/07/20 12:43:06;;;;;;;10.90;5.10;;;;;;;;;;6302887;22;20409;-85
2021/07/20 12:45:36;;;;;;;10.35;5.53;;;;;;;;;;6303688;22;20373;-84
2021/07/20 12:48:27;;;;;;;10.02;5.20;;;;;;;;;;6301841;22;20027;-85
2021/07/20 12:50:57;;;;;;;12.77;5.55;;;;;;;;;;6303454;22;20033;-85
2021/07/20 12:53:27;;;;;;;9.02;4.75;;;;;;;;;;6302350;22;20027;-85
2021/07/20 12:55:57;;;;;;;9.90;5.28;;;;;;;;;;6305046;22;20019;-86
2021/07/20 12:58:27;;;;;;;10.02;5.57;;;;;;;;;;6303059;22;20023;-85
2021/07/20 13:00:54;;;;;;;10.23;5.07;;;;;;;;;;6302133;22;20445;-84
2021/07/20 13:03:24;;;;;;;11.40;5.35;;;;;;;;;;6301605;22;20045;-84
2021/07/20 13:05:53;;;;;;;7.05;4.72;;;;;;;;;;6307197;22;20178;-86
2021/07/20 13:08:21;;;;;;;8.18;4.63;;;;;;;;;;6297978;22;20089;-83
2021/07/20 13:10:48;;;;;;;8.75;5.38;;;;;;;;;;6300528;22;20045;-85
2021/07/20 13:13:15;;;;;;;8.13;4.88;;;;;;;;;;6298963;22;20027;-84
2021/07/20 13:15:47;;;;;;;8.77;5.10;;;;;;;;;;6300171;22;20027;-84
2021/07/20 13:18:20;;;;;;;12.30;5.72;;;;;;;;;;6300120;22;20037;-84
2021/07/20 13:20:52;;;;;;;9.57;5.68;;;;;;;;;;6298205;22;20037;-86
2021/07/20 13:23:19;;;;;;;9.77;5.07;;;;;;;;;;6303604;22;20031;-86
2021/07/20 13:25:51;;;;;;;10.57;5.75;;;;;;;;;;6298850;22;20019;-84
2021/07/20 13:28:19;;;;;;;10.45;5.68;;;;;;;;;;6306556;22;20034;-85
2021/07/20 13:30:55;;;;;;;12.57;5.95;;;;;;;;;;6304052;22;20168;-85
2021/07/20 13:33:26;;;;;;;7.95;5.53;;;;;;;;;;6303160;22;20023;-85
2021/07/20 13:35:56;;;;;;;9.50;5.85;;;;;;;;;;6307468;22;20289;-85
2021/07/20 13:38:25;;;;;;;9.45;6.13;;;;;;;;;;6306167;22;20400;-85
2021/07/20 13:40:52;;;;;;;9.60;5.97;;;;;;;;;;6304294;22;20434;-85
2021/07/20 13:43:19;;;;;;;11.38;6.38;;;;;;;;;;6307615;22;20034;-85
2021/07/20 13:45:47;;;;;;;10.20;6.22;;;;;;;;;;6309827;22;20298;-85
2021/07/20 13:48:15;;;;;;;8.77;5.88;;;;;;;;;;6303874;22;20031;-85
2021/07/20 13:50:45;;;;;;;9.52;7.00;;;;;;;;;;6308445;22;20023;-85
2021/07/20 13:53:24;;;;;;;11.77;6.43;;;;;;;;;;6311553;22;20015;-85
2021/07/20 13:56:08;;;;;;;11.55;6.70;;;;;;;;;;6335825;22;20022;-85
2021/07/20 13:58:35;;;;;;;10.77;6.45;;;;;;;;;;6306208;22;20164;-83
2021/07/20 14:01:14;;;;;;;10.95;6.13;;;;;;;;;;6305902;22;20027;-84
2021/07/20 14:03:45;;;;;;;10.80;6.63;;;;;;;;;;6332720;22;20230;-84
2021/07/20 14:06:12;;;;;;;11.00;6.60;;;;;;;;;;6306192;22;20026;-84
2021/07/20 14:08:40;;;;;;;9.35;6.65;;;;;;;;;;6304333;22;20400;-85
2021/07/20 14:11:09;;;;;;;8.73;6.47;;;;;;;;;;6333058;22;20145;-85
2021/07/20 14:13:39;;;;;;;10.23;7.13;;;;;;;;;;6334742;22;20427;-85
2021/07/20 14:16:07;;;;;;;8.50;6.32;;;;;;;;;;6309450;22;20080;-85
2021/07/20 14:18:34;;;;;;;9.73;6.65;;;;;;;;;;6308068;22;20053;-88
2021/07/20 14:21:01;;;;;;;12.88;6.97;;;;;;;;;;6332272;22;20263;-84
2021/07/20 14:23:28;;;;;;;9.52;6.20;;;;;;;;;;6304768;22;20046;-84
2021/07/20 14:25:59;;;;;;;9.57;6.60;;;;;;;;;;6306255;22;20126;-86
2021/07/20 14:28:29;;;;;;;10.20;6.68;;;;;;;;;;6337299;22;20023;-84
2021/07/20 14:30:59;;;;;;;9.15;6.22;;;;;;;;;;6302298;22;20154;-84
2021/07/20 14:33:38;;;;;;;11.98;7.40;;;;;;;;;;6307897;22;20109;-84
2021/07/20 14:36:06;;;;;;;9.77;6.70;;;;;;;;;;6305447;22;20053;-83
2021/07/20 14:38:34;;;;;;;10.38;6.90;;;;;;;;;;6304406;22;20026;-84
2021/07/20 14:41:03;;;;;;;10.98;6.85;;;;;;;;;;6304518;22;20566;-86
2021/07/20 14:43:34;;;;;;;10.50;6.43;;;;;;;;;;6333360;22;20056;-85
2021/07/20 14:46:15;;;;;;;10.15;6.25;;;;;;;;;;6303437;22;20076;-86
2021/07/20 14:48:43;;;;;;;9.77;6.63;;;;;;;;;;6309553;22;20130;-85
2021/07/20 14:51:10;;;;;;;9.80;6.38;;;;;;;;;;6312094;22;20215;-85
2021/07/20 14:54:06;;;;;;;10.65;5.32;;;;;;;;;;6311196;22;20174;-85
2021/07/20 14:56:47;;;;;;;13.65;7.40;;;;;;;;;;6282625;22;20213;-85
2021/07/20 14:59:24;;;;;;;12.13;6.40;;;;;;;;;;6318352;22;20037;-84
2021/07/20 15:01:51;;;;;;;13.73;6.45;;;;;;;;;;6325972;22;20074;-83
2021/07/20 15:04:33;;;;;;;8.55;5.57;;;;;;;;;;6351457;22;20026;-86
2021/07/20 15:07:15;;;;;;;11.15;5.10;;;;;;;;;;6310805;22;20084;-85
2021/07/20 15:09:48;;;;;;;9.77;5.13;;;;;;;;;;6336058;22;20022;-84